createdAt,value
2023-02-18T00:01:52.762Z,14.35
2023-02-18T00:04:20.274Z,14.36
2023-02-18T00:06:47.689Z,14.39
2023-02-18T00:09:14.671Z,14.39
2023-02-18T00:11:41.887Z,14.38
2023-02-18T00:14:12.507Z,14.39
2023-02-18T00:16:39.512Z,14.40
2023-02-18T00:19:07.814Z,14.41
2023-02-18T00:21:35.370Z,14.43
2023-02-18T00:24:02.741Z,14.45
2023-02-18T00:26:29.833Z,14.46
2023-02-18T00:28:57.126Z,14.43
2023-02-18T00:31:25.986Z,14.44
2023-02-18T00:33:53.025Z,14.42
2023-02-18T00:36:20.879Z,14.40
2023-02-18T00:38:50.052Z,14.40
2023-02-18T00:41:17.411Z,14.41
2023-02-18T00:43:44.455Z,14.43
2023-02-18T00:46:11.992Z,14.42
2023-02-18T00:48:39.243Z,14.44
2023-02-18T00:51:07.000Z,14.42
2023-02-18T00:53:34.139Z,14.42
2023-02-18T00:56:01.591Z,14.39
2023-02-18T00:58:28.846Z,14.38
2023-02-18T01:00:56.327Z,14.35
2023-02-18T01:03:24.132Z,14.29
2023-02-18T01:05:51.325Z,14.21
2023-02-18T01:08:19.320Z,14.19
2023-02-18T01:10:47.424Z,14.18
2023-02-18T01:13:14.672Z,14.21
2023-02-18T01:15:42.353Z,14.22
2023-02-18T01:18:09.896Z,14.21
2023-02-18T01:20:38.129Z,14.17
2023-02-18T01:23:05.208Z,14.16
2023-02-18T01:25:32.626Z,14.13
2023-02-18T01:27:59.550Z,14.11
2023-02-18T01:30:26.616Z,14.07
2023-02-18T01:32:53.767Z,14.01
2023-02-18T01:35:20.864Z,13.98
2023-02-18T01:37:48.103Z,13.97
2023-02-18T01:40:16.169Z,13.96
2023-02-18T01:42:43.090Z,13.96
2023-02-18T01:45:13.097Z,13.96
2023-02-18T01:47:40.067Z,13.93
2023-02-18T01:50:07.487Z,13.91
2023-02-18T01:52:34.454Z,13.91
2023-02-18T01:55:01.476Z,13.88
2023-02-18T01:57:31.471Z,13.90
2023-02-18T02:00:00.604Z,13.90
2023-02-18T02:02:28.377Z,13.88
2023-02-18T02:04:55.970Z,13.87
2023-02-18T02:07:24.294Z,13.91
2023-02-18T02:09:53.077Z,13.92
2023-02-18T02:12:23.297Z,13.91
2023-02-18T02:15:00.367Z,13.92
2023-02-18T02:17:30.355Z,13.89
2023-02-18T02:20:09.562Z,13.89
2023-02-18T02:22:39.736Z,13.89
2023-02-18T02:25:12.089Z,13.88
2023-02-18T02:27:42.180Z,13.87
2023-02-18T02:30:12.726Z,13.80
2023-02-18T02:32:54.045Z,13.79
2023-02-18T02:35:24.277Z,13.72
2023-02-18T02:37:54.437Z,13.67
2023-02-18T02:40:27.213Z,13.65
2023-02-18T02:42:57.576Z,13.64
2023-02-18T02:45:29.579Z,13.64
2023-02-18T02:47:58.064Z,13.64
2023-02-18T02:50:25.401Z,13.63
2023-02-18T02:52:55.354Z,13.63
2023-02-18T02:55:22.436Z,13.62
2023-02-18T02:57:50.659Z,13.61
2023-02-18T03:00:19.002Z,13.60
2023-02-18T03:02:49.088Z,13.62
2023-02-18T03:05:17.420Z,13.61
2023-02-18T03:07:47.407Z,13.61
2023-02-18T03:10:17.572Z,13.61
2023-02-18T03:12:47.817Z,13.64
2023-02-18T03:15:17.691Z,13.63
2023-02-18T03:17:49.750Z,13.66
2023-02-18T03:20:19.785Z,13.65
2023-02-18T03:22:49.011Z,13.64
2023-02-18T03:25:17.220Z,13.64
2023-02-18T03:27:46.460Z,13.65
2023-02-18T03:30:16.546Z,13.65
2023-02-18T03:32:44.477Z,13.62
2023-02-18T03:35:14.540Z,13.62
2023-02-18T03:37:44.079Z,13.62
2023-02-18T03:40:11.912Z,13.63
2023-02-18T03:42:38.799Z,13.63
2023-02-18T03:45:06.032Z,13.63
2023-02-18T03:47:33.199Z,13.62
2023-02-18T03:50:00.122Z,13.59
2023-02-18T03:52:27.062Z,13.57
2023-02-18T03:54:53.933Z,13.54
2023-02-18T03:57:20.888Z,13.52
2023-02-18T03:59:47.750Z,13.48
2023-02-18T04:02:14.591Z,13.49
2023-02-18T04:04:41.521Z,13.50
2023-02-18T04:07:08.537Z,13.46
2023-02-18T04:09:35.407Z,13.45
2023-02-18T04:12:02.346Z,13.44
2023-02-18T04:14:29.268Z,13.44
2023-02-18T04:16:56.136Z,13.44
2023-02-18T04:19:23.013Z,13.43
2023-02-18T04:21:50.028Z,13.45
2023-02-18T04:24:16.988Z,13.44
2023-02-18T04:26:43.995Z,13.43
2023-02-18T04:29:10.895Z,13.43
2023-02-18T04:31:37.885Z,13.40
2023-02-18T04:34:05.091Z,13.41
2023-02-18T04:36:31.965Z,13.42
2023-02-18T04:38:59.686Z,13.43
2023-02-18T04:41:26.664Z,13.45
2023-02-18T04:43:53.638Z,13.44
2023-02-18T04:46:20.631Z,13.45
2023-02-18T04:48:47.537Z,13.45
2023-02-18T04:51:14.378Z,13.46
2023-02-18T04:53:41.263Z,13.43
2023-02-18T04:56:08.425Z,13.40
2023-02-18T04:58:35.723Z,13.41
2023-02-18T05:01:04.071Z,13.40
2023-02-18T05:03:31.334Z,13.41
2023-02-18T05:05:58.699Z,13.35
2023-02-18T05:08:25.635Z,13.36
2023-02-18T05:10:52.567Z,13.37
2023-02-18T05:13:19.530Z,13.39
2023-02-18T05:15:46.446Z,13.40
2023-02-18T05:18:13.328Z,13.45
2023-02-18T05:20:40.273Z,13.42
2023-02-18T05:23:07.205Z,13.41
2023-02-18T05:25:34.130Z,13.38
2023-02-18T05:28:00.960Z,13.41
2023-02-18T05:30:27.864Z,13.41
2023-02-18T05:32:54.838Z,13.42
2023-02-18T05:35:21.750Z,13.41
2023-02-18T05:37:48.635Z,13.42
2023-02-18T05:40:15.733Z,13.46
2023-02-18T05:42:42.605Z,13.46
2023-02-18T05:45:09.744Z,13.43
2023-02-18T05:47:36.647Z,13.38
2023-02-18T05:50:04.526Z,13.39
2023-02-18T05:52:31.440Z,13.40
2023-02-18T05:54:58.366Z,13.40
2023-02-18T05:57:25.316Z,13.40
2023-02-18T05:59:52.304Z,13.43
2023-02-18T06:02:19.277Z,13.44
2023-02-18T06:04:46.133Z,13.46
2023-02-18T06:07:13.389Z,13.46
2023-02-18T06:09:40.232Z,13.48
2023-02-18T06:12:07.290Z,13.49
2023-02-18T06:14:34.126Z,13.49
2023-02-18T06:17:01.047Z,13.48
2023-02-18T06:19:27.982Z,13.47
2023-02-18T06:21:56.429Z,13.47
2023-02-18T06:24:23.329Z,13.48
2023-02-18T06:26:50.215Z,13.52
2023-02-18T06:29:17.343Z,13.49
2023-02-18T06:31:44.431Z,13.47
2023-02-18T06:34:11.385Z,13.49
2023-02-18T06:36:38.288Z,13.48
2023-02-18T06:39:05.303Z,13.47
2023-02-18T06:41:32.262Z,13.45
2023-02-18T06:43:59.355Z,13.45
2023-02-18T06:46:26.261Z,13.47
2023-02-18T06:48:53.217Z,13.47
2023-02-18T06:51:20.130Z,13.48
2023-02-18T06:53:47.060Z,13.50
2023-02-18T06:56:14.087Z,13.49
2023-02-18T06:58:40.986Z,13.48
2023-02-18T07:01:07.947Z,13.47
2023-02-18T07:03:34.920Z,13.48
2023-02-18T07:06:01.876Z,13.51
2023-02-18T07:08:30.925Z,13.52
2023-02-18T07:10:58.050Z,13.52
2023-02-18T07:13:24.938Z,13.55
2023-02-18T07:15:51.760Z,13.54
2023-02-18T07:18:18.680Z,13.53
2023-02-18T07:20:45.589Z,13.55
2023-02-18T07:23:12.441Z,13.56
2023-02-18T07:25:39.432Z,13.54
2023-02-18T07:28:06.385Z,13.56
2023-02-18T07:30:33.346Z,13.60
2023-02-18T07:33:01.926Z,13.61
2023-02-18T07:35:30.671Z,13.64
2023-02-18T07:37:58.217Z,13.62
2023-02-18T07:40:25.000Z,13.64
2023-02-18T07:42:51.713Z,13.65
2023-02-18T07:45:22.225Z,13.65
2023-02-18T07:47:49.028Z,13.64
2023-02-18T07:50:15.759Z,13.67
2023-02-18T07:52:42.535Z,13.70
2023-02-18T07:55:09.320Z,13.74
2023-02-18T07:57:55.997Z,13.77
2023-02-18T08:00:22.820Z,13.79
2023-02-18T08:02:49.589Z,13.83
2023-02-18T08:05:16.377Z,13.84
2023-02-18T08:07:43.257Z,13.84
2023-02-18T08:10:10.252Z,13.86
2023-02-18T08:12:37.017Z,13.87
2023-02-18T08:15:04.082Z,13.87
2023-02-18T08:17:30.899Z,13.84
2023-02-18T08:19:57.601Z,13.82
2023-02-18T08:22:24.419Z,13.81
2023-02-18T08:24:51.228Z,13.83
2023-02-18T08:27:17.993Z,13.85
2023-02-18T08:29:44.736Z,13.89
2023-02-18T08:32:11.484Z,13.88
2023-02-18T08:34:38.286Z,13.86
2023-02-18T08:37:05.435Z,13.84
2023-02-18T08:39:36.757Z,13.85
2023-02-18T08:42:04.757Z,13.80
2023-02-18T08:44:33.734Z,13.82
2023-02-18T08:47:01.574Z,13.82
2023-02-18T08:49:28.369Z,13.85
2023-02-18T08:51:55.867Z,13.87
2023-02-18T08:54:23.261Z,13.91
2023-02-18T08:56:50.085Z,13.95
2023-02-18T08:59:16.881Z,13.93
2023-02-18T09:01:43.698Z,13.93
2023-02-18T09:04:10.539Z,13.96
2023-02-18T09:06:38.048Z,14.01
2023-02-18T09:09:05.016Z,14.05
2023-02-18T09:11:32.202Z,14.09
2023-02-18T09:13:59.005Z,14.11
2023-02-18T09:16:27.120Z,14.15
2023-02-18T09:18:54.270Z,14.18
2023-02-18T09:21:21.008Z,14.16
2023-02-18T09:23:47.983Z,14.20
2023-02-18T09:26:15.697Z,14.24
2023-02-18T09:28:42.701Z,14.24
2023-02-18T09:31:12.499Z,14.27
2023-02-18T09:33:40.635Z,14.28
2023-02-18T09:36:08.121Z,14.28
2023-02-18T09:38:35.183Z,14.32
2023-02-18T09:41:07.981Z,14.35
2023-02-18T09:43:35.666Z,14.33
2023-02-18T09:46:04.506Z,14.32
2023-02-18T09:48:32.937Z,14.35
2023-02-18T09:51:00.443Z,14.37
2023-02-18T09:53:27.495Z,14.41
2023-02-18T09:55:56.405Z,14.42
2023-02-18T09:58:26.020Z,14.43
2023-02-18T10:00:55.251Z,14.44
2023-02-18T10:03:23.968Z,14.45
2023-02-18T10:05:52.184Z,14.46
2023-02-18T10:08:22.049Z,14.42
2023-02-18T10:10:49.086Z,14.41
2023-02-18T10:13:18.389Z,14.40
2023-02-18T10:15:45.799Z,14.40
2023-02-18T10:18:15.815Z,14.40
2023-02-18T10:20:42.767Z,14.41
2023-02-18T10:23:11.105Z,14.43
2023-02-18T10:25:42.459Z,14.47
2023-02-18T10:28:10.345Z,14.47
2023-02-18T10:30:40.779Z,14.45
2023-02-18T10:33:10.936Z,14.44
2023-02-18T10:35:43.599Z,14.46
2023-02-18T10:38:17.221Z,14.48
2023-02-18T10:40:47.292Z,14.47
2023-02-18T10:43:15.497Z,14.46
2023-02-18T10:45:43.825Z,14.48
2023-02-18T10:48:21.623Z,14.52
2023-02-18T10:50:48.934Z,14.52
2023-02-18T10:53:21.329Z,14.53
2023-02-18T10:55:50.081Z,14.52
2023-02-18T10:58:20.149Z,14.53
2023-02-18T11:00:46.971Z,14.57
2023-02-18T11:03:15.922Z,14.59
2023-02-18T11:05:43.182Z,14.62
2023-02-18T11:08:11.427Z,14.63
2023-02-18T11:10:42.464Z,14.62
2023-02-18T11:13:10.542Z,14.60
2023-02-18T11:15:37.763Z,14.62
2023-02-18T11:18:07.880Z,14.59
2023-02-18T11:20:36.196Z,14.64
2023-02-18T11:23:06.237Z,14.63
2023-02-18T11:25:35.418Z,14.65
2023-02-18T11:28:02.695Z,14.63
2023-02-18T11:30:33.637Z,14.61
2023-02-18T11:33:06.670Z,14.61
2023-02-18T11:35:34.278Z,14.62
2023-02-18T11:38:02.839Z,14.62
2023-02-18T11:40:30.263Z,14.64
2023-02-18T11:43:00.316Z,14.65
2023-02-18T11:45:29.138Z,14.66
2023-02-18T11:47:59.179Z,14.68
2023-02-18T11:50:26.125Z,14.69
2023-02-18T11:52:54.230Z,14.67
2023-02-18T11:55:23.609Z,14.68
2023-02-18T11:57:58.264Z,14.70
2023-02-18T12:00:25.719Z,14.69
2023-02-18T12:02:55.506Z,14.66
2023-02-18T12:05:23.919Z,14.62
2023-02-18T12:07:53.088Z,14.58
2023-02-18T12:10:23.834Z,14.58
2023-02-18T12:12:54.835Z,14.61
2023-02-18T12:15:25.496Z,14.62
2023-02-18T12:18:00.488Z,14.64
2023-02-18T12:20:28.694Z,14.70
2023-02-18T12:23:04.566Z,14.76
2023-02-18T12:25:37.801Z,14.85
2023-02-18T12:28:12.315Z,14.87
2023-02-18T12:30:45.423Z,14.85
2023-02-18T12:33:15.692Z,14.84
2023-02-18T12:35:45.662Z,14.87
2023-02-18T12:38:13.911Z,14.84
2023-02-18T12:40:44.143Z,14.82
2023-02-18T12:43:12.446Z,14.84
2023-02-18T12:45:39.843Z,14.84
2023-02-18T12:48:08.007Z,14.85
2023-02-18T12:50:38.040Z,14.84
2023-02-18T12:53:08.121Z,14.83
2023-02-18T12:55:36.437Z,14.84
2023-02-18T12:58:04.795Z,14.89
2023-02-18T13:00:32.152Z,14.94
2023-02-18T13:03:02.128Z,14.97
2023-02-18T13:05:32.485Z,15.03
2023-02-18T13:08:02.605Z,15.06
2023-02-18T13:10:42.546Z,15.11
2023-02-18T13:13:12.926Z,15.18
2023-02-18T13:15:43.145Z,15.23
2023-02-18T13:18:13.432Z,15.20
2023-02-18T13:20:43.827Z,15.19
2023-02-18T13:23:13.851Z,15.18
2023-02-18T13:25:41.123Z,15.15
2023-02-18T13:28:11.192Z,15.14
2023-02-18T13:30:43.639Z,15.10
2023-02-18T13:33:13.528Z,15.06
2023-02-18T13:35:47.032Z,15.02
2023-02-18T13:38:15.207Z,15.01
2023-02-18T13:40:43.310Z,14.92
2023-02-18T13:43:19.290Z,14.84
2023-02-18T13:46:03.209Z,14.81
2023-02-18T13:48:30.121Z,14.81
2023-02-18T13:51:00.300Z,14.80
2023-02-18T13:53:29.966Z,14.79
2023-02-18T13:55:57.401Z,14.80
2023-02-18T13:58:24.621Z,14.84
2023-02-18T14:00:55.947Z,14.83
2023-02-18T14:03:26.052Z,14.84
2023-02-18T14:05:56.373Z,14.81
2023-02-18T14:08:26.430Z,14.84
2023-02-18T14:10:56.406Z,14.88
2023-02-18T14:13:25.514Z,14.87
2023-02-18T14:15:55.130Z,14.89
2023-02-18T14:18:25.105Z,14.93
2023-02-18T14:20:52.948Z,14.97
2023-02-18T14:23:20.499Z,15.02
2023-02-18T14:25:50.507Z,15.01
2023-02-18T14:28:20.630Z,14.97
2023-02-18T14:30:47.708Z,14.94
2023-02-18T14:33:15.652Z,14.94
2023-02-18T14:35:45.633Z,14.94
2023-02-18T14:38:15.631Z,14.94
2023-02-18T14:40:47.730Z,14.93
2023-02-18T14:43:14.868Z,14.93
2023-02-18T14:45:44.927Z,14.94
2023-02-18T14:48:22.695Z,14.89
2023-02-18T14:50:51.071Z,14.90
2023-02-18T14:53:20.013Z,14.89
2023-02-18T14:55:52.971Z,14.89
2023-02-18T14:58:20.257Z,14.90
2023-02-18T15:00:47.197Z,14.90
2023-02-18T15:03:15.987Z,14.92
2023-02-18T15:05:43.497Z,14.94
2023-02-18T15:08:16.966Z,14.93
2023-02-18T15:10:45.274Z,14.95
2023-02-18T15:13:17.269Z,14.97
2023-02-18T15:15:45.802Z,14.99
2023-02-18T15:18:15.826Z,15.02
2023-02-18T15:20:42.861Z,15.01
2023-02-18T15:23:12.494Z,15.02
2023-02-18T15:25:39.831Z,15.04
2023-02-18T15:28:06.880Z,15.01
2023-02-18T15:30:33.819Z,15.02
2023-02-18T15:33:01.282Z,15.02
2023-02-18T15:35:30.137Z,15.00
2023-02-18T15:37:58.514Z,15.01
2023-02-18T15:40:30.313Z,15.03
2023-02-18T15:42:58.288Z,15.04
2023-02-18T15:45:30.123Z,15.04
2023-02-18T15:48:00.441Z,15.00
2023-02-18T15:50:28.684Z,14.99
2023-02-18T15:52:57.305Z,15.02
2023-02-18T15:55:27.349Z,15.01
2023-02-18T15:57:55.046Z,14.97
2023-02-18T16:00:26.935Z,14.93
2023-02-18T16:02:55.974Z,14.95
2023-02-18T16:05:26.331Z,14.97
2023-02-18T16:07:54.149Z,14.97
2023-02-18T16:10:24.448Z,14.99
2023-02-18T16:12:54.279Z,14.96
2023-02-18T16:15:26.031Z,14.93
2023-02-18T16:17:53.512Z,14.90
2023-02-18T16:20:23.528Z,14.89
2023-02-18T16:22:53.009Z,14.90
2023-02-18T16:25:23.258Z,14.87
2023-02-18T16:27:53.038Z,14.88
2023-02-18T16:30:23.617Z,14.88
2023-02-18T16:32:50.832Z,14.88
2023-02-18T16:35:18.884Z,14.90
2023-02-18T16:37:48.100Z,14.88
2023-02-18T16:40:18.213Z,14.86
2023-02-18T16:42:45.156Z,14.84
2023-02-18T16:45:12.935Z,14.82
2023-02-18T16:47:40.184Z,14.82
2023-02-18T16:50:14.538Z,14.81
2023-02-18T16:52:41.396Z,14.81
2023-02-18T16:55:11.508Z,14.82
2023-02-18T16:57:38.429Z,14.80
2023-02-18T17:00:08.305Z,14.81
2023-02-18T17:02:36.418Z,14.81
2023-02-18T17:05:06.226Z,14.81
2023-02-18T17:07:34.862Z,14.81
2023-02-18T17:10:01.745Z,14.79
2023-02-18T17:12:28.941Z,14.78
2023-02-18T17:14:55.939Z,14.79
2023-02-18T17:17:23.972Z,14.79
2023-02-18T17:19:51.180Z,14.79
2023-02-18T17:22:18.063Z,14.79
2023-02-18T17:24:45.170Z,14.71
2023-02-18T17:27:12.202Z,14.68
2023-02-18T17:29:39.127Z,14.68
2023-02-18T17:32:08.430Z,14.65
2023-02-18T17:34:37.952Z,14.66
2023-02-18T17:37:04.876Z,14.66
2023-02-18T17:39:31.844Z,14.66
2023-02-18T17:41:58.954Z,14.64
2023-02-18T17:44:26.401Z,14.64
2023-02-18T17:46:55.177Z,14.62
2023-02-18T17:49:23.028Z,14.62
2023-02-18T17:51:50.043Z,14.60
2023-02-18T17:54:18.449Z,14.60
2023-02-18T17:56:46.232Z,14.56
2023-02-18T17:59:13.567Z,14.52
2023-02-18T18:01:41.308Z,14.48
2023-02-18T18:04:11.203Z,14.44
2023-02-18T18:06:38.223Z,14.39
2023-02-18T18:09:07.321Z,14.36
2023-02-18T18:11:36.006Z,14.33
2023-02-18T18:14:03.182Z,14.32
2023-02-18T18:16:30.391Z,14.31
2023-02-18T18:18:57.480Z,14.28
2023-02-18T18:21:29.614Z,14.27
2023-02-18T18:23:56.512Z,14.25
2023-02-18T18:26:23.356Z,14.21
2023-02-18T18:28:50.388Z,14.21
2023-02-18T18:31:19.120Z,14.20
2023-02-18T18:33:49.800Z,14.18
2023-02-18T18:36:17.482Z,14.19
2023-02-18T18:38:44.579Z,14.16
2023-02-18T18:41:14.213Z,14.13
2023-02-18T18:43:41.241Z,14.10
2023-02-18T18:46:10.771Z,14.08
2023-02-18T18:48:38.262Z,14.06
2023-02-18T18:51:05.634Z,14.05
2023-02-18T18:53:34.435Z,14.04
2023-02-18T18:56:02.594Z,14.03
2023-02-18T18:58:29.530Z,14.01
2023-02-18T19:00:57.916Z,14.04
2023-02-18T19:03:26.981Z,14.05
2023-02-18T19:05:57.042Z,14.05
2023-02-18T19:08:24.081Z,14.05
2023-02-18T19:10:52.395Z,14.05
2023-02-18T19:13:19.665Z,14.02
2023-02-18T19:15:47.218Z,14.00
2023-02-18T19:18:16.582Z,14.00
2023-02-18T19:20:43.990Z,13.98
2023-02-18T19:23:10.909Z,13.97
2023-02-18T19:25:39.199Z,13.96
2023-02-18T19:28:06.486Z,13.92
2023-02-18T19:30:34.779Z,13.88
2023-02-18T19:33:02.704Z,13.84
2023-02-18T19:35:30.184Z,13.83
2023-02-18T19:37:57.099Z,13.78
2023-02-18T19:40:25.650Z,13.76
2023-02-18T19:42:53.283Z,13.74
2023-02-18T19:45:20.894Z,13.69
2023-02-18T19:47:48.323Z,13.67
2023-02-18T19:50:16.385Z,13.66
2023-02-18T19:52:43.289Z,13.63
2023-02-18T19:55:10.599Z,13.59
2023-02-18T19:57:37.724Z,13.56
2023-02-18T20:00:05.653Z,13.53
2023-02-18T20:02:33.284Z,13.51
2023-02-18T20:05:01.941Z,13.48
2023-02-18T20:07:32.150Z,13.45
2023-02-18T20:09:59.168Z,13.39
2023-02-18T20:12:26.380Z,13.36
2023-02-18T20:14:53.220Z,13.33
2023-02-18T20:17:20.152Z,13.30
2023-02-18T20:19:47.687Z,13.28
2023-02-18T20:22:14.718Z,13.30
2023-02-18T20:24:41.837Z,13.31
2023-02-18T20:27:09.610Z,13.34
2023-02-18T20:29:36.753Z,13.35
2023-02-18T20:32:04.537Z,13.38
2023-02-18T20:34:31.827Z,13.39
2023-02-18T20:36:59.192Z,13.38
2023-02-18T20:39:26.226Z,13.41
2023-02-18T20:41:53.313Z,13.42
2023-02-18T20:44:20.806Z,13.40
2023-02-18T20:46:49.345Z,13.41
2023-02-18T20:49:17.726Z,13.42
2023-02-18T20:51:44.729Z,13.44
2023-02-18T20:54:15.894Z,13.43
2023-02-18T20:56:44.019Z,13.44
2023-02-18T20:59:13.254Z,13.46
2023-02-18T21:01:41.272Z,13.45
2023-02-18T21:04:08.773Z,13.43
2023-02-18T21:06:35.751Z,13.42
2023-02-18T21:09:02.881Z,13.42
2023-02-18T21:11:30.065Z,13.48
2023-02-18T21:14:01.701Z,13.48
2023-02-18T21:16:29.463Z,13.48
2023-02-18T21:18:56.454Z,13.48
2023-02-18T21:21:23.995Z,13.48
2023-02-18T21:23:51.439Z,13.47
2023-02-18T21:26:21.043Z,13.48
2023-02-18T21:28:49.600Z,13.48
2023-02-18T21:31:19.214Z,13.47
2023-02-18T21:33:46.026Z,13.47
2023-02-18T21:36:14.234Z,13.49
2023-02-18T21:38:43.346Z,13.46
2023-02-18T21:41:12.420Z,13.42
2023-02-18T21:43:39.571Z,13.41
2023-02-18T21:46:07.979Z,13.39
2023-02-18T21:48:38.086Z,13.36
2023-02-18T21:51:05.220Z,13.33
2023-02-18T21:53:32.057Z,13.33
2023-02-18T21:56:08.394Z,13.31
2023-02-18T21:58:35.315Z,13.32
2023-02-18T22:01:02.285Z,13.33
2023-02-18T22:03:29.251Z,13.31
2023-02-18T22:05:56.147Z,13.29
2023-02-18T22:08:23.062Z,13.28
2023-02-18T22:10:49.995Z,13.27
2023-02-18T22:13:17.114Z,13.27
2023-02-18T22:15:44.062Z,13.27
2023-02-18T22:18:10.864Z,13.28
2023-02-18T22:20:38.553Z,13.27
2023-02-18T22:23:05.451Z,13.29
2023-02-18T22:25:35.436Z,13.25
2023-02-18T22:28:07.079Z,13.24
2023-02-18T22:30:34.547Z,13.22
2023-02-18T22:33:01.452Z,13.20
2023-02-18T22:35:28.272Z,13.16
2023-02-18T22:37:55.131Z,13.15
2023-02-18T22:40:22.053Z,13.11
2023-02-18T22:42:49.048Z,13.10
2023-02-18T22:45:15.992Z,13.09
2023-02-18T22:47:43.071Z,13.09
2023-02-18T22:50:10.209Z,13.04
2023-02-18T22:52:37.147Z,13.00
2023-02-18T22:55:04.142Z,12.97
2023-02-18T22:57:31.002Z,12.92
2023-02-18T22:59:57.887Z,12.88
2023-02-18T23:02:25.325Z,12.83
2023-02-18T23:04:55.192Z,12.81
2023-02-18T23:07:24.760Z,12.81
2023-02-18T23:09:51.801Z,12.80
2023-02-18T23:12:18.948Z,12.77
2023-02-18T23:14:45.861Z,12.74
2023-02-18T23:17:13.976Z,12.74
2023-02-18T23:19:41.930Z,12.71
2023-02-18T23:22:10.069Z,12.69
2023-02-18T23:24:38.908Z,12.68
2023-02-18T23:27:06.302Z,12.67
2023-02-18T23:29:33.400Z,12.67
2023-02-18T23:32:00.539Z,12.66
2023-02-18T23:34:28.789Z,12.63
2023-02-18T23:36:55.733Z,12.60
2023-02-18T23:39:23.094Z,12.58
2023-02-18T23:41:50.712Z,12.57
2023-02-18T23:44:19.233Z,12.54
2023-02-18T23:46:46.672Z,12.52
2023-02-18T23:49:15.356Z,12.52
2023-02-18T23:51:42.544Z,12.51
2023-02-18T23:54:09.840Z,12.48
2023-02-18T23:56:36.951Z,12.47
2023-02-18T23:59:05.351Z,12.42
